Time;durP1;ratioP1;P1;durP2;ratioP2;P2;SDS_P1;SDS_P2;PMS_P1;PMS_P2;Temp;Humidity;BMP_temperature;BMP_pressure;BME280_temperature;BME280_humidity;BME280_pressure;Samples;Min_cycle;Max_cycle;Signal;HPM_P1;HPM_P2
2022/01/20 00:01:15;;;;;;;29.30;17.40;;;;;;;1.16;83.41;99735.78;87697;1284;89409;-69
2022/01/20 00:03:30;;;;;;;27.10;17.50;;;;;;;1.18;83.34;99732.02;87679;1283;95074;-69
2022/01/20 00:05:58;;;;;;;28.60;17.30;;;;;;;1.18;83.39;99733.13;87696;1283;80523;-70
2022/01/20 00:08:15;;;;;;;29.80;17.70;;;;;;;1.22;83.29;99727.06;87724;1282;80689;-62
2022/01/20 00:27:21;;;;;;;29.50;17.90;;;;;;;1.19;82.35;99697.95;87674;1283;94135;-63
2022/01/20 00:29:29;;;;;;;28.40;17.10;;;;;;;1.13;82.57;99697.73;87668;1283;80667;-62
2022/01/20 00:31:43;;;;;;;28.50;16.60;;;;;;;1.11;82.63;99694.93;87677;1283;81100;-62
2022/01/20 00:33:53;;;;;;;28.90;16.80;;;;;;;1.14;82.64;99684.61;87682;1283;99498;-71
2022/01/20 00:38:25;;;;;;;28.00;16.60;;;;;;;1.21;82.70;99672.37;87674;1283;94922;-70
2022/01/20 00:40:32;;;;;;;27.10;17.00;;;;;;;1.24;82.52;99659.14;87677;1283;77873;-72
2022/01/20 00:42:39;;;;;;;26.70;17.70;;;;;;;1.26;82.66;99654.11;87683;1283;81929;-69
2022/01/20 00:44:49;;;;;;;27.80;17.70;;;;;;;1.29;82.68;99649.63;87700;1283;98157;-70
2022/01/20 00:46:55;;;;;;;28.90;18.30;;;;;;;1.30;82.60;99658.26;87668;1283;87634;-69
2022/01/20 00:49:04;;;;;;;28.20;18.80;;;;;;;1.30;82.53;99646.14;87597;1283;94375;-70
2022/01/20 00:51:13;;;;;;;26.70;17.40;;;;;;;1.30;82.49;99641.33;87693;1283;77341;-70
2022/01/20 00:53:22;;;;;;;29.80;17.40;;;;;;;1.27;82.44;99634.77;87675;1283;81106;-69
2022/01/20 00:55:28;;;;;;;26.10;17.60;;;;;;;1.24;82.50;99636.99;87663;1283;100618;-72
2022/01/20 00:57:34;;;;;;;26.20;17.50;;;;;;;1.20;82.51;99637.71;87714;1283;88443;-63
2022/01/20 00:59:40;;;;;;;27.10;17.10;;;;;;;1.22;82.49;99630.42;87653;1283;94384;-62
2022/01/20 01:01:49;;;;;;;28.10;17.50;;;;;;;1.24;82.53;99631.31;87684;1283;79156;-62
2022/01/20 01:03:55;;;;;;;28.40;17.10;;;;;;;1.30;82.55;99626.27;87677;1283;80561;-64
2022/01/20 01:06:11;;;;;;;26.70;16.80;;;;;;;1.34;82.43;99619.11;87663;1283;100434;-63
2022/01/20 01:08:16;;;;;;;26.30;17.00;;;;;;;1.38;82.62;99615.23;87670;1284;87978;-63
2022/01/20 01:10:29;;;;;;;27.90;16.70;;;;;;;1.42;82.35;99611.75;87682;1283;93114;-63
2022/01/20 01:12:41;;;;;;;26.10;17.10;;;;;;;1.44;82.28;99606.29;87666;1283;77479;-70
2022/01/20 01:14:51;;;;;;;28.70;18.50;;;;;;;1.44;82.27;99599.33;87653;1284;80869;-72
2022/01/20 01:22:04;;;;;;;27.90;16.70;;;;;;;1.41;82.16;99597.14;87647;1283;95737;-69
2022/01/20 01:24:10;;;;;;;26.60;17.40;;;;;;;1.42;82.17;99594.59;87673;1284;82013;-70
2022/01/20 01:26:21;;;;;;;25.20;17.30;;;;;;;1.44;82.21;99588.55;87709;1283;80258;-70
2022/01/20 01:28:31;;;;;;;27.80;16.90;;;;;;;1.46;82.24;99585.98;87643;1284;100524;-70
2022/01/20 01:31:02;;;;;;;27.20;16.70;;;;;;;1.51;82.40;99582.70;87644;1284;89373;-71
2022/01/20 01:33:08;;;;;;;27.80;16.90;;;;;;;1.56;82.26;99575.64;87645;1283;93637;-70
2022/01/20 01:35:18;;;;;;;25.30;16.70;;;;;;;1.61;82.29;99566.70;87671;1283;78635;-71
2022/01/20 01:38:23;;;;;;;27.20;16.70;;;;;;;1.65;82.22;99561.61;87613;1284;81856;-62
2022/01/20 01:40:13;;;;;;;26.20;16.90;;;;;;;1.67;82.06;99553.68;87689;1283;97658;-61
2022/01/20 01:42:30;;;;;;;26.70;16.50;;;;;;;1.68;82.03;99552.55;87688;1284;86409;-63
2022/01/20 01:44:38;;;;;;;26.10;17.30;;;;;;;1.67;82.17;99548.59;87688;1284;95568;-63
2022/01/20 01:46:48;;;;;;;26.90;17.00;;;;;;;1.66;82.14;99548.48;87666;1284;79433;-63
2022/01/20 01:48:57;;;;;;;25.10;16.60;;;;;;;1.67;82.18;99542.50;87684;1283;80589;-63
2022/01/20 01:51:03;;;;;;;27.60;17.50;;;;;;;1.67;82.25;99538.77;87692;1284;99071;-62
2022/01/20 01:53:14;;;;;;;28.70;18.10;;;;;;;1.70;82.17;99537.48;87692;1283;88422;-71
2022/01/20 01:55:23;;;;;;;26.90;17.90;;;;;;;1.70;82.21;99534.45;87679;1283;95381;-73
2022/01/20 01:57:29;;;;;;;27.60;16.70;;;;;;;1.68;82.27;99525.73;87697;1283;78598;-63
2022/01/20 01:59:38;;;;;;;28.90;19.70;;;;;;;1.68;82.49;99525.90;87655;1284;83252;-63
2022/01/20 02:01:44;;;;;;;32.60;18.30;;;;;;;1.68;82.48;99528.23;87655;1284;98601;-63
2022/01/20 02:03:58;;;;;;;31.30;18.40;;;;;;;1.68;82.54;99527.85;87724;1284;87023;-63
2022/01/20 02:06:22;;;;;;;;;;;;;;;1.69;82.72;99516.11;87668;1283;94165;-62
2022/01/20 02:08:35;;;;;;;29.20;18.10;;;;;;;1.64;82.76;99513.75;87679;1283;79609;-63
2022/01/20 02:17:57;;;;;;;29.30;19.30;;;;;;;1.51;83.38;99495.73;87672;1283;95347;-62
2022/01/20 02:20:05;;;;;;;31.40;19.40;;;;;;;1.49;83.45;99493.27;87683;1283;81381;-63
2022/01/20 02:22:13;;;;;;;33.60;20.00;;;;;;;1.49;83.53;99490.98;87690;1283;82900;-70
2022/01/20 02:24:20;;;;;;;31.20;19.70;;;;;;;1.48;83.82;99486.58;87591;1284;100013;-70
2022/01/20 02:26:26;;;;;;;29.40;20.30;;;;;;;1.43;83.91;99480.24;87692;1283;88929;-70
2022/01/20 02:28:34;;;;;;;31.50;20.30;;;;;;;1.43;84.08;99476.28;87661;1283;94655;-63
2022/01/20 02:30:43;;;;;;;30.30;19.40;;;;;;;1.42;84.11;99473.23;87623;1284;80694;-63
2022/01/20 02:32:56;;;;;;;29.50;18.50;;;;;;;1.40;84.09;99464.27;87669;1283;81365;-63
2022/01/20 02:35:02;;;;;;;30.40;19.40;;;;;;;1.40;84.22;99459.10;87699;1282;99525;-63
2022/01/20 02:37:12;;;;;;;29.20;19.30;;;;;;;1.40;84.52;99454.25;87680;1283;88234;-63
2022/01/20 02:39:41;;;;;;;32.30;19.70;;;;;;;1.38;84.63;99446.15;87643;1284;96019;-63
2022/01/20 02:46:56;;;;;;;28.90;19.10;;;;;;;1.37;84.78;99442.02;87683;1283;99690;-68
2022/01/20 02:49:02;;;;;;;29.80;19.00;;;;;;;1.36;84.82;99440.09;87635;1284;89285;-64
2022/01/20 02:51:08;;;;;;;30.40;20.60;;;;;;;1.35;85.12;99436.34;87684;1284;94436;-63
2022/01/20 02:53:14;;;;;;;30.70;20.80;;;;;;;1.30;85.18;99434.88;87638;1283;81502;-71
2022/01/20 02:55:24;;;;;;;32.40;19.80;;;;;;;1.31;85.17;99424.84;87620;1283;83399;-71
2022/01/20 02:57:33;;;;;;;26.10;18.20;;;;;;;1.33;85.22;99419.34;87639;1283;99109;-70
2022/01/20 02:59:40;;;;;;;33.50;20.90;;;;;;;1.30;85.36;99410.11;87654;1283;88469;-72
2022/01/20 03:01:46;;;;;;;31.30;20.10;;;;;;;1.30;85.49;99403.02;87642;1283;95977;-71
2022/01/20 03:03:52;;;;;;;30.90;20.00;;;;;;;1.31;85.44;99401.49;87642;1284;79304;-71
2022/01/20 03:05:57;;;;;;;28.80;18.70;;;;;;;1.28;85.42;99396.59;87632;1283;80409;-72
2022/01/20 03:08:04;;;;;;;29.50;19.80;;;;;;;1.27;85.63;99388.39;87642;1283;99697;-73
2022/01/20 03:10:13;;;;;;;30.30;19.30;;;;;;;1.27;85.76;99387.20;87657;1283;89522;-71
2022/01/20 03:12:19;;;;;;;30.10;19.50;;;;;;;1.25;85.80;99384.33;87636;1283;95518;-64
2022/01/20 03:14:28;;;;;;;29.00;19.90;;;;;;;1.28;85.75;99384.89;87496;1286;81235;-63
2022/01/20 03:16:37;;;;;;;28.40;19.20;;;;;;;1.28;86.17;99383.48;87626;1284;81219;-63
2022/01/20 03:18:43;;;;;;;28.50;18.50;;;;;;;1.26;86.28;99374.30;87595;1284;100995;-62
2022/01/20 03:20:49;;;;;;;29.80;19.80;;;;;;;1.23;86.20;99371.77;87678;1283;89739;-63
2022/01/20 03:22:58;;;;;;;27.90;19.60;;;;;;;1.21;86.23;99376.95;87626;1283;95630;-63
2022/01/20 03:25:05;;;;;;;28.80;19.60;;;;;;;1.18;86.27;99367.82;87674;1283;79608;-63
2022/01/20 03:27:11;;;;;;;26.80;17.70;;;;;;;1.15;86.48;99363.20;87658;1284;81492;-63
2022/01/20 03:29:17;;;;;;;26.60;18.30;;;;;;;1.14;86.45;99365.77;87652;1284;101063;-63
2022/01/20 03:31:26;;;;;;;28.80;18.80;;;;;;;1.18;86.61;99369.98;87658;1283;89248;-62
2022/01/20 03:33:32;;;;;;;28.60;19.00;;;;;;;1.22;86.92;99366.39;87642;1284;94751;-63
2022/01/20 03:35:40;;;;;;;26.70;17.80;;;;;;;1.22;86.71;99361.98;87645;1284;80466;-64
2022/01/20 03:37:48;;;;;;;27.20;18.30;;;;;;;1.22;87.10;99357.58;87709;1284;82992;-63
2022/01/20 03:39:54;;;;;;;26.80;17.60;;;;;;;1.24;86.85;99360.02;87624;1285;99678;-63
2022/01/20 03:42:00;;;;;;;25.40;17.90;;;;;;;1.27;86.97;99363.20;87694;1284;88061;-64
2022/01/20 03:44:09;;;;;;;25.90;17.00;;;;;;;1.29;86.95;99361.19;87641;1284;95946;-64
2022/01/20 03:46:18;;;;;;;26.20;17.80;;;;;;;1.29;87.06;99357.13;87616;1284;80155;-63
2022/01/20 03:48:26;;;;;;;22.70;16.20;;;;;;;1.30;87.17;99360.42;87674;1284;81960;-63
2022/01/20 03:52:58;;;;;;;24.00;16.80;;;;;;;1.27;87.31;99354.58;87627;1284;87434;-73
2022/01/20 03:55:05;;;;;;;23.90;16.70;;;;;;;1.28;87.42;99356.52;87633;1284;95501;-74
2022/01/20 03:57:11;;;;;;;24.90;17.10;;;;;;;1.29;87.78;99349.72;87625;1284;77851;-63
2022/01/20 03:59:19;;;;;;;25.10;16.50;;;;;;;1.30;87.61;99339.81;87641;1283;82708;-63
2022/01/20 04:01:25;;;;;;;23.00;15.90;;;;;;;1.33;87.57;99348.23;87638;1284;100350;-62
2022/01/20 04:03:31;;;;;;;22.10;16.10;;;;;;;1.35;87.42;99343.70;87346;1283;326700;-62
2022/01/20 04:05:42;;;;;;;22.80;15.20;;;;;;;1.37;87.61;99338.72;87635;1284;95759;-63
2022/01/20 04:07:48;;;;;;;20.40;14.80;;;;;;;1.37;87.72;99334.33;87629;1284;78394;-64
2022/01/20 04:09:53;;;;;;;22.20;15.30;;;;;;;1.34;87.74;99335.91;87645;1284;83055;-63
2022/01/20 04:11:59;;;;;;;23.90;15.30;;;;;;;1.33;88.00;99332.04;87659;1283;100589;-64
2022/01/20 04:14:07;;;;;;;20.80;13.90;;;;;;;1.34;88.00;99335.01;87636;1284;90466;-66
2022/01/20 04:16:18;;;;;;;19.60;14.40;;;;;;;1.34;87.92;99338.77;87644;1283;94312;-64
2022/01/20 04:18:26;;;;;;;21.10;15.20;;;;;;;1.34;88.27;99329.68;87684;1283;79065;-74
2022/01/20 04:20:32;;;;;;;20.80;14.00;;;;;;;1.34;88.43;99328.02;87650;1284;82459;-74
2022/01/20 04:22:41;;;;;;;19.00;13.70;;;;;;;1.37;88.23;99325.69;87637;1283;99659;-74
2022/01/20 04:24:49;;;;;;;19.30;14.00;;;;;;;1.38;88.33;99331.42;87661;1283;89469;-75
2022/01/20 04:26:56;;;;;;;19.90;14.10;;;;;;;1.38;88.28;99327.98;87608;1284;93813;-74
2022/01/20 04:29:02;;;;;;;19.10;13.80;;;;;;;1.42;88.32;99323.34;87675;1284;80933;-74
2022/01/20 04:31:09;;;;;;;19.30;13.90;;;;;;;1.44;88.44;99321.60;87642;1283;83226;-74
2022/01/20 04:33:18;;;;;;;18.40;13.20;;;;;;;1.45;88.36;99319.64;87626;1284;100664;-76
2022/01/20 04:35:24;;;;;;;18.90;13.40;;;;;;;1.51;88.36;99320.24;87578;1284;87320;-75
2022/01/20 04:37:34;;;;;;;20.20;13.90;;;;;;;1.53;88.34;99315.41;87574;1284;92668;-65
2022/01/20 04:39:45;;;;;;;20.90;13.90;;;;;;;1.55;88.24;99319.27;87593;1284;82123;-63
2022/01/20 04:41:54;;;;;;;20.40;13.90;;;;;;;1.56;88.27;99319.44;87600;1284;82446;-69
2022/01/20 04:44:07;;;;;;;18.70;13.40;;;;;;;1.57;88.23;99317.50;87587;1284;99871;-74
2022/01/20 04:46:20;;;;;;;19.30;13.30;;;;;;;1.59;88.28;99317.45;87580;1283;89021;-74
2022/01/20 04:48:42;;;;;;;20.00;13.40;;;;;;;1.60;88.18;99310.58;87564;1284;94996;-74
2022/01/20 04:58:00;;;;;;;;;;;;;;;1.69;88.42;99304.36;87600;1284;88822;-73
2022/01/20 05:00:09;;;;;;;20.90;14.00;;;;;;;1.70;88.54;99298.95;87561;1284;93183;-73
2022/01/20 05:02:16;;;;;;;19.90;13.50;;;;;;;1.70;88.36;99299.98;87585;1284;78786;-65
2022/01/20 05:04:24;;;;;;;17.30;13.60;;;;;;;1.72;88.23;99301.02;87562;1284;83053;-62
2022/01/20 05:06:31;;;;;;;18.30;14.00;;;;;;;1.73;88.36;99302.86;87603;1284;98889;-62
2022/01/20 05:08:37;;;;;;;17.50;13.30;;;;;;;1.74;88.55;99292.05;87579;1284;89265;-62
2022/01/20 05:10:46;;;;;;;19.80;13.80;;;;;;;1.75;88.33;99294.88;87586;1284;93846;-64
2022/01/20 05:13:03;;;;;;;17.70;13.80;;;;;;;1.77;88.35;99296.08;87576;1284;78937;-63
2022/01/20 05:15:10;;;;;;;18.90;13.80;;;;;;;1.76;88.34;99290.95;87626;1284;81055;-63
2022/01/20 05:17:16;;;;;;;16.90;13.00;;;;;;;1.78;88.38;99292.73;87602;1284;100248;-61
2022/01/20 05:19:22;;;;;;;17.50;13.30;;;;;;;1.80;88.29;99288.30;87580;1284;89542;-63
2022/01/20 05:21:27;;;;;;;17.90;13.30;;;;;;;1.81;88.23;99290.88;87565;1284;95725;-63
2022/01/20 05:23:34;;;;;;;18.40;13.00;;;;;;;1.82;88.29;99286.50;87569;1284;80253;-74
2022/01/20 05:25:40;;;;;;;17.70;12.70;;;;;;;1.78;88.50;99284.77;87606;1284;82481;-73
2022/01/20 05:27:46;;;;;;;22.20;14.10;;;;;;;1.78;88.21;99285.27;87547;1284;100598;-62
2022/01/20 05:29:52;;;;;;;16.70;13.00;;;;;;;1.82;88.34;99282.78;87600;1284;89030;-62
2022/01/20 05:31:57;;;;;;;19.10;13.50;;;;;;;1.82;88.28;99286.37;87543;1284;94217;-71
2022/01/20 05:34:03;;;;;;;18.10;13.20;;;;;;;1.84;88.34;99281.67;87583;1284;81649;-73
2022/01/20 05:36:08;;;;;;;19.10;13.90;;;;;;;1.87;88.31;99284.86;87586;1284;83206;-73
2022/01/20 05:38:17;;;;;;;18.60;13.20;;;;;;;1.86;88.18;99288.78;87547;1284;100232;-72
2022/01/20 05:40:24;;;;;;;16.20;12.10;;;;;;;1.84;88.14;99290.20;87604;1284;89577;-72
2022/01/20 05:42:29;;;;;;;16.80;12.50;;;;;;;1.83;88.09;99292.60;87593;1284;95595;-78
2022/01/20 05:44:35;;;;;;;16.00;11.70;;;;;;;1.83;88.06;99304.55;87591;1284;80558;-73
2022/01/20 05:46:48;;;;;;;13.50;10.30;;;;;;;1.79;88.01;99314.80;87611;1284;80853;-77
2022/01/20 05:48:58;;;;;;;8.60;5.70;;;;;;;1.76;87.86;99299.73;87574;1284;99008;-73
2022/01/20 05:51:06;;;;;;;7.60;5.10;;;;;;;1.63;87.63;99302.45;87605;1284;89868;-70
2022/01/20 05:53:11;;;;;;;9.60;5.20;;;;;;;1.62;87.61;99302.40;87562;1284;93851;-68
2022/01/20 05:55:22;;;;;;;9.60;6.20;;;;;;;1.59;87.44;99303.74;87571;1284;79391;-71
2022/01/20 05:57:28;;;;;;;8.40;5.30;;;;;;;1.57;87.36;99302.07;87590;1284;80678;-69
2022/01/20 05:59:37;;;;;;;11.30;5.50;;;;;;;1.54;87.34;99304.29;87587;1284;99262;-76
2022/01/20 06:01:46;;;;;;;9.20;5.90;;;;;;;1.55;87.25;99305.80;87580;1284;89186;-74
2022/01/20 06:03:52;;;;;;;8.30;4.90;;;;;;;1.56;87.23;99309.96;87581;1284;95282;-63
2022/01/20 06:05:58;;;;;;;7.50;4.10;;;;;;;1.57;87.18;99318.88;87575;1284;78972;-63
2022/01/20 06:08:05;;;;;;;6.70;3.90;;;;;;;1.54;87.14;99322.77;87557;1284;82212;-61
2022/01/20 06:10:11;;;;;;;8.80;3.90;;;;;;;1.54;87.00;99320.33;87533;1285;99572;-64
2022/01/20 06:12:17;;;;;;;10.20;4.20;;;;;;;1.53;86.94;99320.13;87570;1284;89040;-63
2022/01/20 06:14:23;;;;;;;8.50;3.60;;;;;;;1.47;86.89;99320.13;87576;1284;93717;-64
2022/01/20 06:16:29;;;;;;;7.90;3.80;;;;;;;1.45;86.84;99320.84;87619;1284;78418;-64
2022/01/20 06:18:38;;;;;;;7.00;3.70;;;;;;;1.42;86.80;99324.55;87600;1284;81437;-72
2022/01/20 06:20:44;;;;;;;8.40;3.60;;;;;;;1.41;86.74;99322.16;87581;1284;99486;-72
2022/01/20 06:22:50;;;;;;;8.30;3.50;;;;;;;1.38;86.71;99324.69;87541;1284;89342;-72
2022/01/20 06:24:56;;;;;;;5.60;2.80;;;;;;;1.38;86.68;99327.34;87574;1284;95555;-72
2022/01/20 06:27:05;;;;;;;7.60;3.00;;;;;;;1.38;86.62;99325.02;87601;1284;79184;-64
2022/01/20 06:29:14;;;;;;;6.60;2.60;;;;;;;1.34;86.47;99315.98;87563;1284;81305;-63
2022/01/20 06:31:23;;;;;;;6.50;3.60;;;;;;;1.31;86.38;99314.40;87574;1284;101205;-62
2022/01/20 06:33:29;;;;;;;6.30;2.60;;;;;;;1.28;86.28;99312.03;87610;1284;87521;-72
2022/01/20 06:35:38;;;;;;;5.60;2.50;;;;;;;1.27;86.40;99308.20;87543;1284;94965;-72
2022/01/20 06:37:44;;;;;;;7.70;2.40;;;;;;;1.27;86.33;99299.95;87588;1284;80523;-64
2022/01/20 06:39:49;;;;;;;9.70;2.10;;;;;;;1.24;86.28;99296.27;87580;1284;83157;-65
2022/01/20 06:41:58;;;;;;;8.20;2.20;;;;;;;1.25;86.18;99287.89;87573;1284;99000;-71
2022/01/20 06:44:04;;;;;;;9.60;2.10;;;;;;;1.25;86.19;99287.39;87595;1284;87685;-72
2022/01/20 06:46:10;;;;;;;7.30;2.40;;;;;;;1.21;86.09;99287.54;87608;1284;94107;-72
2022/01/20 06:48:20;;;;;;;6.90;2.10;;;;;;;1.13;85.92;99288.27;87536;1285;79147;-63
2022/01/20 06:50:26;;;;;;;11.20;2.50;;;;;;;1.04;85.75;99289.37;87588;1284;81175;-64
2022/01/20 06:52:35;;;;;;;7.30;1.80;;;;;;;0.94;85.67;99291.95;87588;1284;101174;-63
2022/01/20 06:54:41;;;;;;;7.40;2.10;;;;;;;0.87;85.55;99290.91;87583;1284;89258;-63
2022/01/20 06:56:47;;;;;;;7.80;1.80;;;;;;;0.80;85.53;99291.80;87556;1284;95076;-64
2022/01/20 06:58:56;;;;;;;10.80;2.90;;;;;;;0.72;85.52;99291.05;87524;1284;81190;-70
2022/01/20 07:01:05;;;;;;;6.40;2.00;;;;;;;0.67;85.49;99289.59;87582;1284;82226;-72
2022/01/20 07:03:12;;;;;;;6.20;1.90;;;;;;;0.62;85.46;99291.52;87582;1284;98917;-63
2022/01/20 07:05:21;;;;;;;4.90;1.50;;;;;;;0.55;85.45;99294.66;87578;1284;89690;-63
2022/01/20 07:07:27;;;;;;;10.30;2.00;;;;;;;0.49;85.38;99301.33;87611;1284;95309;-71
2022/01/20 07:09:36;;;;;;;10.10;2.50;;;;;;;0.46;85.50;99298.98;87584;1284;81016;-64
2022/01/20 07:11:45;;;;;;;7.90;2.30;;;;;;;0.44;85.58;99299.85;87587;1284;82615;-63
2022/01/20 07:13:55;;;;;;;9.30;2.50;;;;;;;0.41;85.58;99299.42;87582;1284;99489;-63
2022/01/20 07:16:01;;;;;;;7.60;2.20;;;;;;;0.40;85.45;99301.64;87565;1284;89229;-64
2022/01/20 07:18:07;;;;;;;7.50;2.90;;;;;;;0.41;85.51;99299.82;87541;1284;94437;-72
2022/01/20 07:20:15;;;;;;;7.80;2.40;;;;;;;0.45;85.48;99305.61;87561;1284;79240;-71
2022/01/20 07:22:21;;;;;;;8.00;2.20;;;;;;;0.45;85.41;99300.80;87565;1284;80851;-63
2022/01/20 07:24:31;;;;;;;9.50;2.30;;;;;;;0.42;85.42;99305.15;87585;1284;98679;-63
2022/01/20 07:26:37;;;;;;;9.60;2.40;;;;;;;0.44;85.31;99300.09;87578;1284;87727;-63
2022/01/20 07:28:45;;;;;;;8.90;2.30;;;;;;;0.43;85.28;99297.48;87512;1284;95042;-63
2022/01/20 07:30:56;;;;;;;11.30;2.30;;;;;;;0.46;85.22;99291.70;87570;1284;78611;-73
2022/01/20 07:33:06;;;;;;;10.00;2.50;;;;;;;0.49;85.15;99284.09;87599;1284;81488;-71
2022/01/20 07:35:20;;;;;;;10.50;2.70;;;;;;;0.54;84.90;99278.28;87403;1287;99104;-72
2022/01/20 07:37:31;;;;;;;9.70;2.60;;;;;;;0.53;84.89;99277.15;87530;1284;89411;-73
2022/01/20 07:39:37;;;;;;;9.20;2.60;;;;;;;0.52;84.87;99279.88;87603;1284;94547;-73
2022/01/20 07:41:46;;;;;;;9.40;2.50;;;;;;;0.53;84.84;99283.16;87580;1284;77148;-72
2022/01/20 07:43:53;;;;;;;11.40;2.60;;;;;;;0.54;84.87;99283.04;87616;1284;80689;-72
2022/01/20 07:46:02;;;;;;;10.50;3.00;;;;;;;0.61;84.77;99288.80;87544;1284;100856;-73
2022/01/20 07:48:13;;;;;;;11.60;2.60;;;;;;;0.90;84.66;99283.82;87573;1284;89202;-64
2022/01/20 07:50:19;;;;;;;7.40;2.20;;;;;;;1.89;85.10;99279.63;87528;1285;93365;-64
2022/01/20 07:52:29;;;;;;;11.30;2.80;;;;;;;3.11;84.52;99272.05;87570;1284;79289;-71
2022/01/20 07:54:36;;;;;;;9.10;3.00;;;;;;;4.33;83.03;99266.98;87575;1284;80447;-71
2022/01/20 07:56:45;;;;;;;11.90;3.40;;;;;;;5.46;82.26;99257.77;87590;1284;98953;-73
2022/01/20 07:58:54;;;;;;;8.00;2.80;;;;;;;6.45;81.16;99251.23;87517;1284;88293;-74
2022/01/20 08:01:01;;;;;;;9.90;3.00;;;;;;;7.24;79.93;99240.89;87539;1284;92919;-73
2022/01/20 08:03:06;;;;;;;8.80;3.80;;;;;;;7.97;78.82;99241.70;87410;1287;80979;-67
2022/01/20 08:05:16;;;;;;;8.40;3.20;;;;;;;8.47;77.58;99247.27;87568;1284;80826;-66
2022/01/20 08:07:25;;;;;;;7.50;3.10;;;;;;;8.57;75.64;99249.90;87568;1284;100721;-66
2022/01/20 08:09:31;;;;;;;7.90;2.80;;;;;;;8.51;75.96;99253.61;87577;1284;89328;-66
2022/01/20 08:11:41;;;;;;;5.20;2.50;;;;;;;8.00;74.08;99254.87;87573;1284;95953;-66
2022/01/20 08:13:47;;;;;;;7.50;2.60;;;;;;;8.00;75.03;99257.28;87546;1284;81008;-67
2022/01/20 08:15:57;;;;;;;6.30;2.90;;;;;;;8.04;74.61;99258.04;87598;1284;81784;-63
2022/01/20 08:18:03;;;;;;;6.80;3.40;;;;;;;7.78;73.49;99257.70;87577;1284;100543;-73
2022/01/20 08:20:12;;;;;;;7.60;3.00;;;;;;;7.25;72.48;99256.92;87581;1284;87890;-72
2022/01/20 08:22:21;;;;;;;5.90;2.40;;;;;;;6.48;72.81;99258.20;87558;1284;95102;-72
2022/01/20 08:24:27;;;;;;;7.30;2.70;;;;;;;5.92;72.95;99242.06;87551;1284;80021;-66
2022/01/20 08:26:33;;;;;;;6.50;3.20;;;;;;;5.54;72.79;99240.31;87546;1285;82616;-66
2022/01/20 08:28:44;;;;;;;6.30;2.30;;;;;;;5.27;73.20;99232.32;87564;1284;101127;-63
2022/01/20 08:30:56;;;;;;;6.70;2.80;;;;;;;5.02;73.45;99231.61;87585;1284;87134;-63
2022/01/20 08:33:05;;;;;;;8.40;3.00;;;;;;;4.69;73.32;99232.95;87539;1284;93784;-73
2022/01/20 08:35:15;;;;;;;10.30;3.10;;;;;;;4.52;72.87;99228.91;87393;1287;80460;-71
2022/01/20 08:37:28;;;;;;;7.60;2.90;;;;;;;4.50;73.77;99227.13;87530;1284;81801;-71
2022/01/20 08:39:46;;;;;;;11.20;2.80;;;;;;;4.44;73.98;99215.25;87561;1284;101018;-72
2022/01/20 08:42:08;;;;;;;8.40;2.90;;;;;;;4.27;74.08;99205.46;87393;1289;88771;-70
2022/01/20 08:44:21;;;;;;;8.00;2.30;;;;;;;4.37;74.74;99203.73;87374;1289;94723;-64
2022/01/20 08:46:34;;;;;;;7.90;2.50;;;;;;;5.03;74.05;99191.96;87547;1285;77130;-65
2022/01/20 08:49:05;;;;;;;7.70;3.10;;;;;;;5.77;73.46;99194.69;87590;1284;80897;-69
2022/01/20 08:51:15;;;;;;;7.10;2.80;;;;;;;6.25;73.90;99213.98;87553;1284;98341;-64
2022/01/20 08:53:24;;;;;;;10.50;2.80;;;;;;;6.64;73.37;99222.69;87606;1284;87965;-70
2022/01/20 08:55:30;;;;;;;7.40;2.60;;;;;;;6.32;73.06;99226.39;87560;1284;93546;-72
2022/01/20 08:57:43;;;;;;;6.10;2.00;;;;;;;5.92;72.64;99222.30;87584;1283;78880;-65
2022/01/20 08:59:51;;;;;;;6.90;2.30;;;;;;;5.60;72.04;99216.08;87564;1286;83439;-63
2022/01/20 09:02:02;;;;;;;5.40;2.20;;;;;;;5.48;72.02;99216.27;87542;1284;101234;-65
2022/01/20 09:04:20;;;;;;;6.50;2.10;;;;;;;5.34;72.17;99223.81;87577;1284;90192;-65
2022/01/20 09:06:28;;;;;;;4.00;1.50;;;;;;;5.27;72.17;99225.23;87572;1284;95199;-64
2022/01/20 09:08:38;;;;;;;5.70;2.10;;;;;;;5.14;72.06;99218.48;87564;1284;77558;-64
2022/01/20 09:10:55;;;;;;;5.10;1.80;;;;;;;4.90;71.86;99214.40;87597;1284;82460;-67
2022/01/20 09:15:35;;;;;;;8.70;2.50;;;;;;;4.44;72.26;99222.36;87581;1284;88245;-65
2022/01/20 09:17:41;;;;;;;7.90;2.20;;;;;;;4.32;72.06;99220.58;87568;1284;94889;-71
2022/01/20 09:19:47;;;;;;;6.00;2.10;;;;;;;4.14;71.87;99223.92;87575;1284;77163;-72
2022/01/20 09:21:56;;;;;;;6.90;1.90;;;;;;;3.97;72.20;99220.45;87586;1284;82528;-70
2022/01/20 09:24:01;;;;;;;5.80;1.90;;;;;;;3.76;72.46;99212.98;87570;1284;100275;-73
2022/01/20 09:26:08;;;;;;;6.00;2.10;;;;;;;3.63;72.60;99208.27;87543;1284;87384;-74
2022/01/20 09:28:13;;;;;;;8.10;2.70;;;;;;;3.55;72.34;99199.41;87577;1284;95995;-64
2022/01/20 09:30:25;;;;;;;7.60;2.60;;;;;;;3.52;72.62;99203.16;87577;1283;77054;-65
2022/01/20 09:32:38;;;;;;;6.70;2.30;;;;;;;3.53;72.78;99214.93;87570;1284;82421;-73
2022/01/20 09:34:45;;;;;;;7.90;2.40;;;;;;;3.54;73.03;99222.11;87551;1284;100416;-73
2022/01/20 09:36:57;;;;;;;8.80;3.40;;;;;;;3.50;72.99;99216.72;87595;1284;89334;-70
2022/01/20 09:39:04;;;;;;;7.60;2.60;;;;;;;3.39;72.90;99210.02;87557;1284;96247;-72
2022/01/20 09:41:14;;;;;;;7.20;2.30;;;;;;;3.26;73.00;99204.19;87558;1284;77295;-71
2022/01/20 09:43:21;;;;;;;8.70;2.00;;;;;;;3.10;72.89;99204.04;87544;1284;82554;-72
2022/01/20 09:45:30;;;;;;;7.70;2.30;;;;;;;2.84;72.68;99194.66;87380;1287;100737;-73
2022/01/20 09:47:38;;;;;;;7.70;2.10;;;;;;;2.75;72.89;99202.79;87555;1284;88208;-72
2022/01/20 09:49:47;;;;;;;7.30;2.30;;;;;;;2.63;72.85;99191.30;87571;1284;95592;-72
2022/01/20 09:51:56;;;;;;;7.40;2.00;;;;;;;2.59;72.90;99205.30;87536;1284;77731;-67
2022/01/20 09:54:06;;;;;;;5.60;1.80;;;;;;;2.50;72.80;99198.64;87505;1286;82590;-73
2022/01/20 09:56:14;;;;;;;7.90;1.60;;;;;;;2.44;72.34;99195.75;87565;1284;96981;-72
2022/01/20 09:58:25;;;;;;;5.20;1.90;;;;;;;2.28;71.84;99197.34;87588;1284;87345;-65
2022/01/20 10:00:35;;;;;;;5.90;1.90;;;;;;;2.26;71.95;99200.00;87557;1284;94756;-65
2022/01/20 10:02:58;;;;;;;8.70;2.20;;;;;;;2.26;71.91;99201.31;87578;1284;77543;-71
2022/01/20 10:05:06;;;;;;;4.90;1.60;;;;;;;2.20;71.60;99194.27;87521;1284;82530;-73
2022/01/20 10:07:14;;;;;;;7.70;1.80;;;;;;;2.25;71.27;99203.70;87583;1284;101092;-64
2022/01/20 10:09:30;;;;;;;5.60;1.90;;;;;;;2.48;71.61;99194.08;87579;1284;88774;-66
2022/01/20 10:11:41;;;;;;;5.60;2.00;;;;;;;2.63;71.31;99194.90;87517;1284;95871;-66
2022/01/20 10:13:46;;;;;;;5.10;1.70;;;;;;;2.51;70.40;99203.70;87552;1284;79960;-72
2022/01/20 10:16:06;;;;;;;5.00;1.70;;;;;;;2.45;70.92;99210.05;87563;1284;81531;-72
2022/01/20 10:18:15;;;;;;;8.20;2.10;;;;;;;2.42;70.04;99200.62;87535;1284;99827;-72
2022/01/20 10:20:21;;;;;;;7.20;2.30;;;;;;;2.33;69.93;99200.98;87575;1284;87844;-75
2022/01/20 10:22:28;;;;;;;5.40;1.60;;;;;;;2.46;70.39;99208.93;87577;1284;94393;-74
2022/01/20 10:24:33;;;;;;;7.40;1.80;;;;;;;2.68;70.40;99208.89;87563;1284;77617;-75
2022/01/20 10:26:40;;;;;;;6.90;1.70;;;;;;;2.82;70.37;99203.58;87578;1284;83433;-77
2022/01/20 10:28:56;;;;;;;7.10;2.80;;;;;;;2.83;70.03;99201.84;87610;1284;100307;-74
2022/01/20 10:31:02;;;;;;;7.50;2.60;;;;;;;2.81;69.78;99197.80;87535;1284;89658;-75
2022/01/20 10:33:07;;;;;;;7.70;2.80;;;;;;;2.84;70.53;99196.41;87598;1284;94328;-79
2022/01/20 10:35:24;;;;;;;7.20;2.80;;;;;;;2.93;70.76;99191.98;87553;1284;77929;-75
2022/01/20 10:37:30;;;;;;;7.80;2.20;;;;;;;2.92;70.50;99183.32;87587;1284;81711;-75
2022/01/20 10:42:24;;;;;;;5.30;2.00;;;;;;;2.75;70.37;99168.62;87579;1284;86780;-74
2022/01/20 10:44:44;;;;;;;4.90;1.80;;;;;;;2.71;69.46;99164.25;87574;1284;93628;-75
2022/01/20 10:46:58;;;;;;;7.40;2.00;;;;;;;2.66;69.33;99167.70;87576;1286;77560;-75
2022/01/20 10:49:08;;;;;;;6.40;1.90;;;;;;;2.63;69.04;99160.27;87593;1284;82097;-72
2022/01/20 10:51:21;;;;;;;5.80;2.30;;;;;;;2.59;68.92;99156.08;87593;1284;100377;-72
2022/01/20 10:53:31;;;;;;;7.80;2.60;;;;;;;2.57;69.36;99159.52;87546;1284;88989;-64
2022/01/20 10:55:40;;;;;;;5.20;1.70;;;;;;;2.57;69.34;99166.55;87596;1284;95026;-67
2022/01/20 10:57:54;;;;;;;6.00;2.10;;;;;;;2.55;69.27;99165.92;87575;1284;77004;-75